Time,TemperatureF,DewpointF,PressureIn,WindDirection,WindDirectionDegrees,WindSpeedMPH,WindSpeedGustMPH,Humidity,HourlyPrecipIn,Conditions,Clouds,dailyrainin,SoftwareType,DateUTC
2013-04-25 00:00:00,37.8,27.4,30.05,South,176,2.0,3.0,66,0.00,RA,,0.00,WeatherDisplay:10.37,2013-04-25 04:00:00,
2013-04-25 00:15:00,37.4,27.1,30.05,SE,144,1.0,3.0,66,0.00,CLR,,0.00,WeatherDisplay:10.37,2013-04-25 04:15:00,
2013-04-25 00:30:00,37.2,27.2,30.05,SSW,207,1.0,5.0,67,0.00,CLR,,0.00,WeatherDisplay:10.37,2013-04-25 04:30:00,
2013-04-25 00:45:00,37.0,27.5,30.05,SSW,196,1.0,5.0,68,0.00,CLR,,0.00,WeatherDisplay:10.37,2013-04-25 04:45:00,
2013-04-25 01:00:00,36.9,27.6,30.04,South,187,2.0,6.0,69,0.00,CLR,,0.00,WeatherDisplay:10.37,2013-04-25 05:00:00,
2013-04-25 01:15:00,37.2,28.3,30.04,SSW,200,3.0,6.0,70,0.00,CLR,,0.00,WeatherDisplay:10.37,2013-04-25 05:15:00,
2013-04-25 01:30:00,37.6,28.7,30.04,SSW,200,2.0,5.0,70,0.00,CLR,,0.00,WeatherDisplay:10.37,2013-04-25 05:30:00,
2013-04-25 01:45:00,37.8,29.2,30.04,SSE,155,2.0,6.0,71,0.00,CLR,,0.00,WeatherDisplay:10.37,2013-04-25 05:45:00,
2013-04-25 02:00:00,38.0,29.4,30.03,SSW,208,3.0,7.0,71,0.00,CLR,,0.00,WeatherDisplay:10.37,2013-04-25 06:00:00,
2013-04-25 02:15:00,38.3,30.1,30.03,SSW,192,3.0,7.0,72,0.00,CLR,,0.00,WeatherDisplay:10.37,2013-04-25 06:15:00,
2013-04-25 02:30:00,38.7,30.5,30.03,South,185,5.0,9.0,72,0.00,CLR,,0.00,WeatherDisplay:10.37,2013-04-25 06:30:00,
2013-04-25 02:45:00,39.0,31.1,30.03,South,185,3.0,6.0,73,0.00,CLR,,0.00,WeatherDisplay:10.37,2013-04-25 06:45:00,
2013-04-25 03:00:00,39.0,31.1,30.03,South,186,3.0,6.0,73,0.00,CLR,,0.00,WeatherDisplay:10.37,2013-04-25 07:00:00,
2013-04-25 03:15:00,39.0,31.4,30.01,South,174,3.0,6.0,74,0.00,CLR,,0.00,WeatherDisplay:10.37,2013-04-25 07:15:00,
2013-04-25 03:30:00,39.0,31.4,30.01,SSE,167,3.0,6.0,74,0.00,CLR,,0.00,WeatherDisplay:10.37,2013-04-25 07:30:00,
2013-04-25 03:45:00,39.0,31.8,30.01,SSE,162,5.0,6.0,75,0.00,CLR,,0.00,WeatherDisplay:10.37,2013-04-25 07:45:00,
2013-04-25 04:00:00,39.0,31.8,30.00,SSE,161,5.0,9.0,75,0.00,CLR,,0.00,WeatherDisplay:10.37,2013-04-25 08:00:00,
2013-04-25 04:15:00,38.8,31.9,30.00,South,183,5.0,8.0,76,0.00,CLR,,0.00,WeatherDisplay:10.37,2013-04-25 08:15:00,
2013-04-25 04:30:00,39.2,32.3,30.00,South,173,5.0,8.0,76,0.00,CLR,,0.00,WeatherDisplay:10.37,2013-04-25 08:30:00,
2013-04-25 04:45:00,39.4,32.4,30.00,South,169,6.0,7.0,76,0.00,CLR,,0.00,WeatherDisplay:10.37,2013-04-25 08:45:00,
2013-04-25 05:00:00,39.6,32.6,29.99,South,190,5.0,9.0,76,0.00,CLR,,0.00,WeatherDisplay:10.37,2013-04-25 09:00:00,
2013-04-25 05:15:00,39.6,32.6,29.99,SSE,149,5.0,7.0,76,0.00,CLR,,0.00,WeatherDisplay:10.37,2013-04-25 09:15:00,
2013-04-25 05:30:00,39.5,32.6,29.99,SE,146,5.0,8.0,76,0.00,CLR,,0.00,WeatherDisplay:10.37,2013-04-25 09:30:00,
2013-04-25 05:45:00,39.7,32.8,29.98,South,176,6.0,7.0,76,0.00,CLR,,0.00,WeatherDisplay:10.37,2013-04-25 09:45:00,
2013-04-25 06:00:00,39.7,32.5,29.98,SSE,162,6.0,9.0,75,0.00,CLR,,0.00,WeatherDisplay:10.37,2013-04-25 10:00:00,
2013-04-25 06:15:00,39.9,32.6,29.98,SSE,160,6.0,9.0,75,0.00,BKN,,0.00,WeatherDisplay:10.37,2013-04-25 10:15:00,
2013-04-25 06:30:00,40.1,32.8,29.98,SSW,205,6.0,9.0,75,0.00,BKN,,0.00,WeatherDisplay:10.37,2013-04-25 10:30:00,
2013-04-25 06:45:00,40.8,33.5,29.99,South,186,7.0,12.0,75,0.00,BKN,,0.00,WeatherDisplay:10.37,2013-04-25 10:45:00,
2013-04-25 07:00:00,41.2,33.9,29.99,SSW,201,8.0,14.0,75,0.00,BKN,,0.00,WeatherDisplay:10.37,2013-04-25 11:00:00,
2013-04-25 07:15:00,41.0,35.0,30.00,WSW,241,14.0,20.0,79,0.00,OVC,,0.00,WeatherDisplay:10.37,2013-04-25 11:15:00,
2013-04-25 07:30:00,40.6,35.6,30.00,WSW,240,13.0,16.0,82,0.03,RA,,0.03,WeatherDisplay:10.37,2013-04-25 11:30:00,
2013-04-25 07:45:00,40.1,35.4,30.00,SW,230,12.0,17.0,83,0.05,RA,,0.08,WeatherDisplay:10.37,2013-04-25 11:45:00,
2013-04-25 08:00:00,39.4,34.9,30.00,SW,227,12.0,17.0,84,0.03,RA,,0.11,WeatherDisplay:10.37,2013-04-25 12:00:00,
2013-04-25 08:15:00,37.9,33.5,30.00,SSW,198,7.0,10.0,84,0.03,-RA,,0.14,WeatherDisplay:10.37,2013-04-25 12:15:00,
2013-04-25 08:30:00,37.8,33.7,30.00,SSW,194,5.0,10.0,85,0.03,-SN,,0.17,WeatherDisplay:10.37,2013-04-25 12:30:00,
2013-04-25 08:45:00,37.9,34.4,30.00,SSE,148,6.0,12.0,87,0.00,-SN,,0.17,WeatherDisplay:10.37,2013-04-25 12:45:00,
2013-04-25 09:00:00,38.3,34.8,30.01,SSW,207,6.0,10.0,87,0.00,-SN,,0.17,WeatherDisplay:10.37,2013-04-25 13:00:00,
2013-04-25 09:15:00,38.7,35.4,30.01,South,180,8.0,15.0,88,0.00,-SN,,0.17,WeatherDisplay:10.37,2013-04-25 13:15:00,
2013-04-25 09:30:00,38.8,35.6,30.01,South,174,7.0,13.0,88,0.00,-SN,,0.17,WeatherDisplay:10.37,2013-04-25 13:30:00,
2013-04-25 09:45:00,39.2,36.2,30.02,SSW,193,7.0,13.0,89,0.00,-SN,,0.17,WeatherDisplay:10.37,2013-04-25 13:45:00,
2013-04-25 10:00:00,39.7,36.8,30.02,SW,224,8.0,15.0,89,0.03,-SN,,0.20,WeatherDisplay:10.37,2013-04-25 14:00:00,
2013-04-25 10:15:00,40.3,37.3,30.02,WSW,238,8.0,12.0,89,0.00,-RA,,0.20,WeatherDisplay:10.37,2013-04-25 14:15:00,
2013-04-25 10:30:00,40.8,37.8,30.02,WSW,242,10.0,15.0,89,0.00,BKN,,0.20,WeatherDisplay:10.37,2013-04-25 14:30:00,
2013-04-25 10:45:00,41.2,38.2,30.03,West,265,10.0,15.0,89,0.00,BKN,,0.20,WeatherDisplay:10.37,2013-04-25 14:45:00,
2013-04-25 11:00:00,41.5,38.5,30.05,WSW,252,10.0,15.0,89,0.00,BKN,,0.20,WeatherDisplay:10.37,2013-04-25 15:00:00,
2013-04-25 11:15:00,42.3,39.0,30.05,West,267,10.0,16.0,88,0.00,OVC,,0.20,WeatherDisplay:10.37,2013-04-25 15:15:00,
2013-04-25 11:30:00,43.3,39.1,30.05,West,270,9.0,15.0,85,0.00,OVC,,0.20,WeatherDisplay:10.37,2013-04-25 15:30:00,
2013-04-25 11:45:00,43.2,38.3,30.06,NW,306,9.0,14.0,83,0.00,OVC,,0.20,WeatherDisplay:10.37,2013-04-25 15:45:00,
2013-04-25 12:00:00,44.0,38.5,30.08,WNW,293,12.0,14.0,81,0.00,OVC,,0.20,WeatherDisplay:10.37,2013-04-25 16:00:00,
2013-04-25 12:15:00,44.2,37.8,30.08,WSW,248,13.0,19.0,78,0.00,BKN,,0.20,WeatherDisplay:10.37,2013-04-25 16:15:00,
2013-04-25 12:30:00,44.7,36.9,30.08,WNW,289,14.0,22.0,74,0.00,BKN,,0.20,WeatherDisplay:10.37,2013-04-25 16:30:00,
2013-04-25 12:45:00,44.6,36.5,30.09,WNW,295,13.0,15.0,73,0.00,BKN,,0.20,WeatherDisplay:10.37,2013-04-25 16:45:00,
2013-04-25 13:00:00,45.0,35.8,30.10,West,278,13.0,22.0,70,0.00,BKN,,0.20,WeatherDisplay:10.37,2013-04-25 17:00:00,
2013-04-25 13:15:00,44.6,36.1,30.11,West,268,13.0,22.0,72,0.00,BKN,,0.20,WeatherDisplay:10.37,2013-04-25 17:15:00,
2013-04-25 13:30:00,45.3,35.3,30.11,WNW,290,13.0,19.0,68,0.00,BKN,,0.20,WeatherDisplay:10.37,2013-04-25 17:30:00,
2013-04-25 13:45:00,45.7,35.3,30.12,WSW,252,12.0,19.0,67,0.00,BKN,,0.20,WeatherDisplay:10.37,2013-04-25 17:45:00,
2013-04-25 14:00:00,46.4,36.0,30.12,West,280,12.0,23.0,67,0.00,BKN,,0.20,WeatherDisplay:10.37,2013-04-25 18:00:00,
2013-04-25 14:15:00,47.1,35.2,30.13,West,273,12.0,23.0,63,0.00,BKN,,0.20,WeatherDisplay:10.37,2013-04-25 18:15:00,
2013-04-25 14:30:00,46.9,34.6,30.13,WNW,293,10.0,18.0,62,0.00,BKN,,0.20,WeatherDisplay:10.37,2013-04-25 18:30:00,
2013-04-25 14:45:00,47.1,34.8,30.13,WNW,294,10.0,18.0,62,0.00,BKN,,0.20,WeatherDisplay:10.37,2013-04-25 18:45:00,
2013-04-25 15:00:00,47.3,34.5,30.14,WNW,284,9.0,14.0,61,0.00,BKN,,0.20,WeatherDisplay:10.37,2013-04-25 19:00:00,
2013-04-25 15:15:00,47.8,34.6,30.15,West,268,13.0,18.0,60,0.00,BKN,,0.20,WeatherDisplay:10.37,2013-04-25 19:15:00,
2013-04-25 15:30:00,48.4,35.1,30.15,West,266,12.0,20.0,60,0.00,BKN,,0.20,WeatherDisplay:10.37,2013-04-25 19:30:00,
2013-04-25 15:45:00,48.6,34.4,30.15,WNW,298,10.0,15.0,58,0.00,BKN,,0.20,WeatherDisplay:10.37,2013-04-25 19:45:00,
2013-04-25 16:00:00,48.6,34.0,30.16,West,259,13.0,21.0,57,0.00,BKN,,0.20,WeatherDisplay:10.37,2013-04-25 20:00:00,
2013-04-25 16:15:00,48.4,33.8,30.17,West,261,10.0,21.0,57,0.00,BKN,,0.20,WeatherDisplay:10.37,2013-04-25 20:15:00,
2013-04-25 16:30:00,48.7,33.7,30.17,West,273,13.0,20.0,56,0.00,BKN,,0.20,WeatherDisplay:10.37,2013-04-25 20:30:00,
2013-04-25 16:45:00,48.7,33.3,30.18,West,279,13.0,21.0,55,0.00,BKN,,0.20,WeatherDisplay:10.37,2013-04-25 20:45:00,
2013-04-25 17:00:00,49.1,32.2,30.18,WNW,300,14.0,22.0,52,0.00,BKN,,0.20,WeatherDisplay:10.37,2013-04-25 21:00:00,
2013-04-25 17:15:00,49.5,33.0,30.18,West,261,10.0,18.0,53,0.00,SCT,,0.20,WeatherDisplay:10.37,2013-04-25 21:15:00,
2013-04-25 17:30:00,49.3,31.5,30.18,WNW,293,10.0,17.0,50,0.00,SCT,,0.20,WeatherDisplay:10.37,2013-04-25 21:30:00,
2013-04-25 17:45:00,49.1,32.2,30.19,NW,304,10.0,16.0,52,0.00,SCT,,0.20,WeatherDisplay:10.37,2013-04-25 21:45:00,
2013-04-25 18:00:00,49.0,31.6,30.19,WNW,293,10.0,15.0,51,0.00,SCT,,0.20,WeatherDisplay:10.37,2013-04-25 22:00:00,
2013-04-25 18:15:00,49.1,30.2,30.20,West,270,10.0,17.0,48,0.00,FEW,,0.20,WeatherDisplay:10.37,2013-04-25 22:15:00,
2013-04-25 18:30:00,49.5,30.6,30.20,WNW,300,9.0,16.0,48,0.00,FEW,,0.20,WeatherDisplay:10.37,2013-04-25 22:30:00,
2013-04-25 18:45:00,49.3,30.4,30.21,NW,306,8.0,10.0,48,0.00,FEW,,0.20,WeatherDisplay:10.37,2013-04-25 22:45:00,
2013-04-25 19:00:00,50.5,31.6,30.19,West,269,8.0,12.0,48,0.00,FEW,,0.20,WeatherDisplay:10.37,2013-04-25 23:00:00,
2013-04-25 19:15:00,49.8,30.9,30.20,West,280,9.0,15.0,48,0.00,FEW,,0.20,WeatherDisplay:10.37,2013-04-25 23:15:00,
2013-04-25 19:30:00,49.2,32.3,30.20,WSW,244,9.0,15.0,52,0.00,FEW,,0.20,WeatherDisplay:10.37,2013-04-25 23:30:00,
2013-04-25 19:45:00,48.7,31.9,30.22,West,266,8.0,13.0,52,0.00,FEW,,0.20,WeatherDisplay:10.37,2013-04-25 23:45:00,
2013-04-25 20:00:00,47.8,31.5,30.23,WSW,247,9.0,15.0,53,0.00,FEW,,0.20,WeatherDisplay:10.37,2013-04-26 00:00:00,
2013-04-25 20:15:00,47.1,31.8,30.24,WSW,237,9.0,14.0,55,0.00,FEW,,0.20,WeatherDisplay:10.37,2013-04-26 00:15:00,
2013-04-25 20:30:00,46.6,32.2,30.24,WSW,240,9.0,14.0,57,0.00,FEW,,0.20,WeatherDisplay:10.37,2013-04-26 00:30:00,
2013-04-25 20:45:00,46.2,32.2,30.25,SW,219,7.0,9.0,58,0.00,FEW,,0.20,WeatherDisplay:10.37,2013-04-26 00:45:00,
2013-04-25 21:00:00,45.4,32.3,30.25,SW,223,5.0,9.0,60,0.00,FEW,,0.20,WeatherDisplay:10.37,2013-04-26 01:00:00,
2013-04-25 21:15:00,44.8,32.1,30.26,SW,217,3.0,7.0,61,0.00,CLR,,0.20,WeatherDisplay:10.37,2013-04-26 01:15:00,
2013-04-25 21:30:00,43.9,31.8,30.26,SSW,194,2.0,5.0,62,0.00,CLR,,0.20,WeatherDisplay:10.37,2013-04-26 01:30:00,
2013-04-25 21:45:00,43.3,31.6,30.26,SSW,205,2.0,5.0,63,0.00,CLR,,0.20,WeatherDisplay:10.37,2013-04-26 01:45:00,
2013-04-25 22:00:00,42.9,31.5,30.27,South,178,2.0,3.0,64,0.00,CLR,,0.20,WeatherDisplay:10.37,2013-04-26 02:00:00,
2013-04-25 22:15:00,42.4,31.5,30.27,South,178,1.0,3.0,65,0.00,CLR,,0.20,WeatherDisplay:10.37,2013-04-26 02:15:00,
2013-04-25 22:30:00,41.8,31.3,30.27,South,172,1.0,2.0,66,0.00,CLR,,0.20,WeatherDisplay:10.37,2013-04-26 02:30:00,
2013-04-25 22:45:00,41.2,31.0,30.28,SSE,168,2.0,3.0,67,0.00,CLR,,0.20,WeatherDisplay:10.37,2013-04-26 02:45:00,
2013-04-25 23:00:00,41.2,31.4,30.27,South,188,1.0,2.0,68,0.00,CLR,,0.20,WeatherDisplay:10.37,2013-04-26 03:00:00,
2013-04-25 23:15:00,40.6,31.3,30.28,South,175,1.0,2.0,69,0.00,CLR,,0.20,WeatherDisplay:10.37,2013-04-26 03:15:00,
2013-04-25 23:30:00,40.1,31.1,30.28,SSE,162,2.0,2.0,70,0.00,CLR,,0.20,WeatherDisplay:10.37,2013-04-26 03:30:00,
2013-04-25 23:45:00,39.7,31.1,30.28,SSE,155,1.0,3.0,71,0.00,CLR,,0.20,WeatherDisplay:10.37,2013-04-26 03:45:00,